Time;durP1;ratioP1;P1;durP2;ratioP2;P2;SDS_P1;SDS_P2;PMS_P1;PMS_P2;Temp;Humidity;BMP_temperature;BMP_pressure;BME280_temperature;BME280_humidity;BME280_pressure;Samples;Min_cycle;Max_cycle;Signal;HPM_P1;HPM_P2
2022/03/11 00:00:52;;;;;;;;;;;;;;;18.81;55.37;99454.59;2084682;28;19920;-58
2022/03/11 00:01:52;;;;;;;;;;;;;;;18.80;55.39;99447.41;2089909;28;20508;-59
2022/03/11 00:02:53;;;;;;;;;;;;;;;18.81;55.38;99453.72;2093071;28;19945;-58
2022/03/11 00:03:54;;;;;;;;;;;;;;;18.79;55.40;99440.25;2093411;28;19911;-58
2022/03/11 00:04:55;;;;;;;;;;;;;;;18.80;55.42;99446.56;2093785;28;19919;-58
2022/03/11 00:05:55;;;;;;;;;;;;;;;18.80;55.36;99444.69;2093406;28;19920;-58
2022/03/11 00:06:56;;;;;;;;;;;;;;;18.78;55.40;99441.25;2092225;28;20245;-58
2022/03/11 00:07:56;;;;;;;;;;;;;;;18.78;55.36;99443.97;2091680;28;19927;-58
2022/03/11 00:08:56;;;;;;;;;;;;;;;18.77;55.40;99441.44;2092987;28;20255;-58
2022/03/11 00:09:57;;;;;;;;;;;;;;;18.77;55.41;99445.00;2091614;28;19924;-58
2022/03/11 00:10:57;;;;;;;;;;;;;;;18.78;55.44;99443.13;2083838;28;19920;-58
2022/03/11 00:11:58;;;;;;;;;;;;;;;18.78;55.43;99443.97;2084001;28;19920;-58
2022/03/11 00:12:58;;;;;;;;;;;;;;;18.77;55.44;99447.75;2094299;28;20821;-58
2022/03/11 00:13:58;;;;;;;;;;;;;;;18.78;55.43;99448.59;2092175;28;19926;-58
2022/03/11 00:14:58;;;;;;;;;;;;;;;18.78;55.29;99449.44;2092027;28;20196;-58
2022/03/11 00:15:59;;;;;;;;;;;;;;;18.78;55.36;99446.72;2087272;28;19968;-59
2022/03/11 00:17:00;;;;;;;;;;;;;;;18.79;55.43;99462.09;2098387;28;20017;-58
2022/03/11 00:18:00;;;;;;;;;;;;;;;18.79;55.33;99463.94;2092127;28;19926;-58
2022/03/11 00:19:00;;;;;;;;;;;;;;;18.79;55.25;99462.09;2090579;28;20541;-58
2022/03/11 00:20:01;;;;;;;;;;;;;;;18.79;55.33;99470.28;2081141;28;19920;-58
2022/03/11 00:21:01;;;;;;;;;;;;;;;18.79;55.28;99470.28;2079147;28;19963;-58
2022/03/11 00:22:01;;;;;;;;;;;;;;;18.78;55.30;99468.56;2087049;28;20494;-58
2022/03/11 00:23:02;;;;;;;;;;;;;;;18.78;55.30;99471.28;2097316;28;20355;-58
2022/03/11 00:24:02;;;;;;;;;;;;;;;18.78;55.34;99479.47;2090874;28;19920;-59
2022/03/11 00:25:03;;;;;;;;;;;;;;;18.77;55.45;99475.03;2096771;28;19997;-59
2022/03/11 00:26:03;;;;;;;;;;;;;;;18.77;55.41;99475.03;2091167;28;20196;-58
2022/03/11 00:27:03;;;;;;;;;;;;;;;18.76;55.44;99472.47;2092555;28;20165;-58
2022/03/11 00:28:04;;;;;;;;;;;;;;;18.74;55.50;99475.34;2092130;28;19966;-58
2022/03/11 00:29:04;;;;;;;;;;;;;;;18.74;55.43;99471.72;2091257;28;19919;-58
2022/03/11 00:30:05;;;;;;;;;;;;;;;18.72;55.53;99471.91;2094232;28;19923;-58
2022/03/11 00:31:05;;;;;;;;;;;;;;;18.71;55.50;99462.00;2095152;28;20276;-58
2022/03/11 00:32:05;;;;;;;;;;;;;;;18.71;55.54;99459.25;2091842;28;19923;-58
2022/03/11 00:33:07;;;;;;;;;;;;;;;18.70;55.57;99457.56;2094164;28;20354;-58
2022/03/11 00:34:07;;;;;;;;;;;;;;;18.70;55.58;99451.25;2089879;28;20143;-58
2022/03/11 00:35:09;;;;;;;;;;;;;;;18.68;55.58;99440.50;2089635;28;20197;-58
2022/03/11 00:36:09;;;;;;;;;;;;;;;18.67;55.58;99446.97;2091738;28;19924;-58
2022/03/11 00:37:10;;;;;;;;;;;;;;;18.67;55.63;99444.25;2091506;28;19927;-58
2022/03/11 00:38:10;;;;;;;;;;;;;;;18.68;55.68;99448.69;2091955;28;19924;-58
2022/03/11 00:39:11;;;;;;;;;;;;;;;18.67;55.63;99454.28;2092197;28;20133;-58
2022/03/11 00:40:13;;;;;;;;;;;;;;;18.66;55.66;99449.88;2087733;28;19946;-57
2022/03/11 00:41:13;;;;;;;;;;;;;;;18.65;55.78;99449.00;2093868;28;19920;-58
2022/03/11 00:42:13;;;;;;;;;;;;;;;18.65;55.72;99449.00;2095846;28;19916;-59
2022/03/11 00:43:14;;;;;;;;;;;;;;;18.64;55.77;99447.28;2097890;28;19942;-58
2022/03/11 00:44:14;;;;;;;;;;;;;;;18.64;55.64;99447.28;2093176;28;19974;-58
2022/03/11 00:45:14;;;;;;;;;;;;;;;18.63;55.78;99445.59;2091213;28;20069;-58
2022/03/11 00:46:15;;;;;;;;;;;;;;;18.65;55.69;99446.28;2093194;28;19922;-58
2022/03/11 00:47:15;;;;;;;;;;;;;;;18.66;55.63;99450.72;2095702;28;20302;-59
2022/03/11 00:48:15;;;;;;;;;;;;;;;18.65;55.79;99451.75;2088834;28;19916;-58
2022/03/11 00:49:16;;;;;;;;;;;;;;;18.66;55.72;99456.19;2091228;28;19920;-59
2022/03/11 00:50:16;;;;;;;;;;;;;;;18.66;55.70;99449.88;2076490;28;20243;-58
2022/03/11 00:51:17;;;;;;;;;;;;;;;18.66;55.63;99449.88;2076922;28;20355;-58
2022/03/11 00:52:17;;;;;;;;;;;;;;;18.66;55.70;99450.72;2082903;28;20013;-58
2022/03/11 00:53:17;;;;;;;;;;;;;;;18.66;55.61;99447.13;2091187;28;19924;-58
2022/03/11 00:54:18;;;;;;;;;;;;;;;18.66;55.63;99453.44;2090845;28;19947;-58
2022/03/11 00:55:18;;;;;;;;;;;;;;;18.65;55.67;99443.56;2094599;28;19915;-58
2022/03/11 00:56:19;;;;;;;;;;;;;;;18.65;55.53;99446.28;2091104;28;20642;-58
2022/03/11 00:57:19;;;;;;;;;;;;;;;18.63;55.66;99434.66;2090571;28;20512;-58
2022/03/11 00:58:19;;;;;;;;;;;;;;;18.63;55.79;99440.13;2091685;28;20272;-58
2022/03/11 00:59:20;;;;;;;;;;;;;;;18.61;55.75;99436.69;2093785;28;20012;-58
2022/03/11 01:00:20;;;;;;;;;;;;;;;18.61;55.76;99436.69;2089976;28;19935;-58
2022/03/11 01:01:21;;;;;;;;;;;;;;;18.60;55.78;99440.47;2079788;28;20084;-58
2022/03/11 01:02:21;;;;;;;;;;;;;;;18.59;55.87;99438.72;2081062;28;20332;-58
2022/03/11 01:03:21;;;;;;;;;;;;;;;18.59;56.00;99438.72;2091717;28;19981;-59
2022/03/11 01:04:22;;;;;;;;;;;;;;;18.58;55.93;99431.56;2093191;28;20478;-59
2022/03/11 01:05:22;;;;;;;;;;;;;;;18.58;56.03;99437.03;2087821;28;19912;-58
2022/03/11 01:06:22;;;;;;;;;;;;;;;18.57;56.02;99430.72;2085888;28;19960;-58
2022/03/11 01:07:23;;;;;;;;;;;;;;;18.57;56.09;99432.56;2095025;28;20668;-58
2022/03/11 01:08:23;;;;;;;;;;;;;;;18.56;55.95;99428.16;2091608;28;19963;-59
2022/03/11 01:09:23;;;;;;;;;;;;;;;18.56;56.08;99428.16;2089225;28;19987;-58
2022/03/11 01:10:25;;;;;;;;;;;;;;;18.56;56.01;99428.16;2092761;28;20268;-58
2022/03/11 01:11:25;;;;;;;;;;;;;;;18.54;56.10;99420.09;2087671;28;20311;-58
2022/03/11 01:12:25;;;;;;;;;;;;;;;18.54;55.95;99427.44;2091032;28;19927;-58
2022/03/11 01:13:26;;;;;;;;;;;;;;;18.54;56.00;99430.19;2093608;28;19926;-59
2022/03/11 01:14:26;;;;;;;;;;;;;;;18.54;56.19;99424.72;2089238;28;19916;-58
2022/03/11 01:15:27;;;;;;;;;;;;;;;18.54;55.99;99419.25;2096133;28;20290;-59
2022/03/11 01:16:27;;;;;;;;;;;;;;;18.53;56.22;99420.28;2091135;28;19920;-58
2022/03/11 01:17:28;;;;;;;;;;;;;;;18.54;56.19;99428.28;2088699;28;19990;-59
2022/03/11 01:18:28;;;;;;;;;;;;;;;18.54;56.12;99425.56;2088139;28;20398;-58
2022/03/11 01:19:28;;;;;;;;;;;;;;;18.53;55.93;99423.03;2089674;28;19956;-59
2022/03/11 01:20:28;;;;;;;;;;;;;;;18.54;56.13;99424.72;2086831;28;19924;-59
2022/03/11 01:21:29;;;;;;;;;;;;;;;18.53;56.08;99423.03;2093089;28;19916;-58
2022/03/11 01:22:29;;;;;;;;;;;;;;;18.54;56.09;99419.25;2091665;28;19919;-58
2022/03/11 01:23:30;;;;;;;;;;;;;;;18.54;56.03;99422.00;2090781;28;20327;-58
2022/03/11 01:24:32;;;;;;;;;;;;;;;18.54;55.97;99413.81;2091516;28;19920;-58
2022/03/11 01:25:32;;;;;;;;;;;;;;;18.55;56.01;99404.63;2094692;28;19920;-58
2022/03/11 01:26:32;;;;;;;;;;;;;;;18.54;56.13;99413.81;2093852;28;19922;-59
2022/03/11 01:27:33;;;;;;;;;;;;;;;18.54;56.14;99411.06;2089280;28;20384;-59
2022/03/11 01:28:33;;;;;;;;;;;;;;;18.54;56.14;99402.88;2095511;28;19916;-59
2022/03/11 01:29:34;;;;;;;;;;;;;;;18.53;56.08;99412.09;2093385;28;19920;-59
2022/03/11 01:30:34;;;;;;;;;;;;;;;18.52;56.21;99404.91;2089062;28;20148;-58
2022/03/11 01:31:34;;;;;;;;;;;;;;;18.50;56.17;99402.38;2091765;28;19970;-58
2022/03/11 01:32:36;;;;;;;;;;;;;;;18.50;56.33;99396.06;2089780;28;20235;-58
2022/03/11 01:33:36;;;;;;;;;;;;;;;18.50;56.32;99396.06;2087309;28;19930;-59
2022/03/11 01:34:36;;;;;;;;;;;;;;;18.48;56.33;99392.63;2086724;28;19967;-59
2022/03/11 01:35:36;;;;;;;;;;;;;;;18.47;56.44;99390.91;2082101;28;19921;-58
2022/03/11 01:36:37;;;;;;;;;;;;;;;18.47;56.43;99393.63;2089056;28;19924;-58
2022/03/11 01:37:37;;;;;;;;;;;;;;;18.47;56.29;99390.91;2091104;28;19920;-58
2022/03/11 01:38:38;;;;;;;;;;;;;;;18.45;56.40;99387.47;2088332;28;20007;-58
2022/03/11 01:39:38;;;;;;;;;;;;;;;18.46;56.41;99389.22;2096003;28;20451;-58
2022/03/11 01:40:38;;;;;;;;;;;;;;;18.45;56.37;99390.22;2090633;28;20413;-59
2022/03/11 01:41:39;;;;;;;;;;;;;;;18.45;56.45;99387.47;2089994;28;19996;-58
2022/03/11 01:42:40;;;;;;;;;;;;;;;18.45;56.49;99384.75;2090115;28;19920;-58
2022/03/11 01:44:10;;;;;;;;;;;;;;;18.43;56.50;99385.78;2083399;28;19966;-58
2022/03/11 01:45:10;;;;;;;;;;;;;;;18.43;56.42;99385.78;2075240;28;20039;-59
2022/03/11 01:46:10;;;;;;;;;;;;;;;18.43;56.43;99385.78;2089757;28;19916;-59
2022/03/11 01:47:11;;;;;;;;;;;;;;;18.42;56.49;99384.09;2088892;28;19912;-58
2022/03/11 01:48:11;;;;;;;;;;;;;;;18.43;56.40;99384.94;2088898;28;19920;-58
2022/03/11 01:49:12;;;;;;;;;;;;;;;18.42;56.50;99378.63;2092929;28;20307;-58
2022/03/11 01:50:12;;;;;;;;;;;;;;;18.43;56.30;99390.38;2078056;28;19909;-58
2022/03/11 01:51:12;;;;;;;;;;;;;;;18.43;56.47;99387.66;2082767;28;19946;-58
2022/03/11 01:52:13;;;;;;;;;;;;;;;18.42;56.34;99384.09;2086285;28;19923;-58
2022/03/11 01:53:14;;;;;;;;;;;;;;;18.43;56.48;99382.19;2089470;28;20429;-58
2022/03/11 01:54:14;;;;;;;;;;;;;;;18.43;56.43;99380.31;2095955;28;19931;-58
2022/03/11 01:55:15;;;;;;;;;;;;;;;18.43;56.36;99376.75;2090582;28;19916;-58
2022/03/11 01:56:16;;;;;;;;;;;;;;;18.43;56.49;99380.31;2095888;28;19920;-58
2022/03/11 01:57:16;;;;;;;;;;;;;;;18.43;56.35;99374.03;2091340;28;19916;-59
2022/03/11 01:58:16;;;;;;;;;;;;;;;18.42;56.42;99373.16;2084226;28;19920;-59
2022/03/11 01:59:17;;;;;;;;;;;;;;;18.42;56.48;99367.72;2090751;28;19962;-59
2022/03/11 02:00:17;;;;;;;;;;;;;;;18.41;56.36;99363.25;2086205;28;19912;-58
2022/03/11 02:01:18;;;;;;;;;;;;;;;18.41;56.53;99368.72;2086872;28;19924;-58
2022/03/11 02:02:19;;;;;;;;;;;;;;;18.41;56.50;99365.13;2089999;28;20003;-58
2022/03/11 02:03:19;;;;;;;;;;;;;;;18.40;56.39;99363.44;2087955;28;19924;-58
2022/03/11 02:04:20;;;;;;;;;;;;;;;18.39;56.46;99361.72;2090208;28;20008;-58
2022/03/11 02:05:20;;;;;;;;;;;;;;;18.37;56.59;99359.16;2089414;28;19916;-58
2022/03/11 02:06:22;;;;;;;;;;;;;;;18.36;56.64;99357.44;2090322;28;19927;-58
2022/03/11 02:07:22;;;;;;;;;;;;;;;18.36;56.48;99357.44;2085685;28;20170;-59
2022/03/11 02:08:22;;;;;;;;;;;;;;;18.36;56.62;99362.88;2088465;28;20104;-58
2022/03/11 02:09:23;;;;;;;;;;;;;;;18.35;56.62;99358.47;2089295;28;19938;-58
2022/03/11 02:10:23;;;;;;;;;;;;;;;18.35;56.56;99355.72;2090666;28;19920;-58
2022/03/11 02:11:24;;;;;;;;;;;;;;;18.34;56.59;99354.00;2090338;28;20387;-58
2022/03/11 02:12:28;;;;;;;;;;;;;;;18.34;56.51;99348.56;2090720;28;19920;-58
2022/03/11 02:13:40;;;;;;;;;;;;;;;18.34;56.66;99354.00;2090545;28;19978;-58
2022/03/11 02:14:41;;;;;;;;;;;;;;;18.33;56.61;99346.84;2092822;28;20427;-58
2022/03/11 02:15:41;;;;;;;;;;;;;;;18.34;56.55;99361.34;2088950;28;19912;-58
2022/03/11 02:16:41;;;;;;;;;;;;;;;18.33;56.48;99346.84;2084331;28;19920;-58
2022/03/11 02:17:41;;;;;;;;;;;;;;;18.32;56.59;99347.84;2085992;28;20298;-58
2022/03/11 02:18:42;;;;;;;;;;;;;;;18.32;56.65;99352.47;2091421;28;19912;-58
2022/03/11 02:19:43;;;;;;;;;;;;;;;18.32;56.78;99344.28;2089655;28;19954;-59
2022/03/11 02:20:46;;;;;;;;;;;;;;;18.32;56.48;99345.13;2088521;28;19924;-59
2022/03/11 02:21:47;;;;;;;;;;;;;;;18.31;56.51;99343.44;2091681;28;20334;-58
2022/03/11 02:22:49;;;;;;;;;;;;;;;18.33;56.49;99346.00;2087802;28;19909;-60
2022/03/11 02:23:51;;;;;;;;;;;;;;;18.32;56.41;99339.66;2088104;28;19925;-61
2022/03/11 02:24:52;;;;;;;;;;;;;;;18.32;56.51;99342.41;2091972;28;19920;-58
2022/03/11 02:25:52;;;;;;;;;;;;;;;18.32;56.54;99338.81;2092481;28;20272;-59
2022/03/11 02:26:53;;;;;;;;;;;;;;;18.32;56.48;99344.28;2089545;28;19928;-59
2022/03/11 02:27:53;;;;;;;;;;;;;;;18.33;56.61;99346.84;2088587;28;19928;-58
2022/03/11 02:28:54;;;;;;;;;;;;;;;18.34;56.65;99343.09;2093414;28;20424;-59
2022/03/11 02:29:54;;;;;;;;;;;;;;;18.33;56.61;99341.41;2086356;28;19927;-58
2022/03/11 02:30:56;;;;;;;;;;;;;;;18.33;56.67;99343.28;2085363;28;20395;-59
2022/03/11 02:31:56;;;;;;;;;;;;;;;18.31;56.75;99343.44;2088521;28;19976;-58
2022/03/11 02:32:56;;;;;;;;;;;;;;;18.30;56.66;99339.00;2088260;28;19974;-59
2022/03/11 02:33:58;;;;;;;;;;;;;;;18.29;56.58;99328.25;2094368;28;19927;-59
2022/03/11 02:34:58;;;;;;;;;;;;;;;18.29;56.49;99336.44;2088457;28;20010;-59
2022/03/11 02:35:59;;;;;;;;;;;;;;;18.27;56.76;99333.00;2089056;28;20655;-59
2022/03/11 02:36:59;;;;;;;;;;;;;;;18.27;56.51;99339.31;2088698;28;20239;-59
2022/03/11 02:38:00;;;;;;;;;;;;;;;18.26;56.84;99334.88;2090081;28;19939;-59
2022/03/11 02:39:00;;;;;;;;;;;;;;;18.25;56.69;99333.19;2087045;28;20283;-58
2022/03/11 02:40:01;;;;;;;;;;;;;;;18.25;56.69;99333.19;2091829;28;20272;-58
2022/03/11 02:41:01;;;;;;;;;;;;;;;18.24;56.67;99331.44;2088619;28;20311;-59
2022/03/11 02:42:03;;;;;;;;;;;;;;;18.24;56.69;99330.59;2095093;28;19930;-59
2022/03/11 02:43:03;;;;;;;;;;;;;;;18.24;56.77;99331.44;2091310;28;20439;-58
2022/03/11 02:44:04;;;;;;;;;;;;;;;18.23;56.74;99327.03;2096193;28;20354;-58
2022/03/11 02:45:05;;;;;;;;;;;;;;;18.24;56.71;99330.59;2090942;28;19974;-58
2022/03/11 02:46:06;;;;;;;;;;;;;;;18.22;56.92;99336.22;2094637;28;19920;-59
2022/03/11 02:47:06;;;;;;;;;;;;;;;18.23;56.72;99327.03;2099269;28;20226;-59
2022/03/11 02:48:06;;;;;;;;;;;;;;;18.22;56.81;99322.56;2090853;28;20715;-59
2022/03/11 02:49:07;;;;;;;;;;;;;;;18.21;56.66;99327.19;2095585;28;19928;-58
2022/03/11 02:50:07;;;;;;;;;;;;;;;18.22;56.79;99328.03;2092310;28;20573;-58
2022/03/11 02:51:08;;;;;;;;;;;;;;;18.22;56.73;99328.03;2090676;28;20257;-59
2022/03/11 02:52:08;;;;;;;;;;;;;;;18.23;56.80;99323.41;2084485;28;19932;-59
2022/03/11 02:53:08;;;;;;;;;;;;;;;18.22;56.70;99328.03;2081827;28;19946;-58
2022/03/11 02:54:09;;;;;;;;;;;;;;;18.22;56.66;99325.31;2089328;28;20296;-59
2022/03/11 02:55:09;;;;;;;;;;;;;;;18.23;56.68;99334.34;2099250;28;19916;-59
2022/03/11 02:56:10;;;;;;;;;;;;;;;18.23;56.84;99334.34;2091272;28;20044;-58
2022/03/11 02:57:10;;;;;;;;;;;;;;;18.23;56.74;99328.88;2097568;28;19927;-59
2022/03/11 02:58:11;;;;;;;;;;;;;;;18.22;56.70;99328.03;2086982;28;20319;-58
2022/03/11 02:59:11;;;;;;;;;;;;;;;18.22;56.56;99328.03;2090754;28;20277;-58
2022/03/11 03:00:12;;;;;;;;;;;;;;;18.21;56.69;99332.63;2091630;28;19927;-59
2022/03/11 03:01:12;;;;;;;;;;;;;;;18.22;56.81;99333.47;2094608;28;20174;-59
2022/03/11 03:02:13;;;;;;;;;;;;;;;18.22;56.85;99328.03;2092821;28;19963;-59
2022/03/11 03:03:13;;;;;;;;;;;;;;;18.21;56.85;99326.34;2092260;28;19926;-58
2022/03/11 03:04:13;;;;;;;;;;;;;;;18.21;56.72;99329.91;2090758;28;19920;-59
2022/03/11 03:05:14;;;;;;;;;;;;;;;18.20;56.93;99322.75;2091259;28;19959;-59
2022/03/11 03:06:14;;;;;;;;;;;;;;;18.20;56.88;99330.06;2094040;28;19920;-59
2022/03/11 03:07:15;;;;;;;;;;;;;;;18.19;56.92;99333.81;2089922;28;19927;-59
2022/03/11 03:08:15;;;;;;;;;;;;;;;18.18;56.89;99322.06;2088165;28;20727;-58
2022/03/11 03:09:15;;;;;;;;;;;;;;;18.19;56.98;99322.91;2093322;28;19924;-58
2022/03/11 03:10:15;;;;;;;;;;;;;;;18.17;56.82;99320.31;2086815;28;20671;-58
2022/03/11 03:11:16;;;;;;;;;;;;;;;18.17;56.88;99320.31;2081210;28;20287;-58
2022/03/11 03:12:16;;;;;;;;;;;;;;;18.18;56.92;99332.13;2084383;28;19955;-58
2022/03/11 03:13:18;;;;;;;;;;;;;;;18.17;56.81;99322.22;2081163;28;20267;-58
2022/03/11 03:14:18;;;;;;;;;;;;;;;18.15;56.98;99326.97;2083820;28;19920;-58
2022/03/11 03:15:18;;;;;;;;;;;;;;;18.14;57.09;99330.72;2084463;28;20613;-58
2022/03/11 03:16:19;;;;;;;;;;;;;;;18.13;56.93;99323.56;2077337;28;19925;-58
2022/03/11 03:17:21;;;;;;;;;;;;;;;18.15;56.96;99326.97;2081555;28;19928;-58
2022/03/11 03:18:21;;;;;;;;;;;;;;;18.15;57.01;99337.88;2081016;28;20375;-58
2022/03/11 03:19:22;;;;;;;;;;;;;;;18.14;56.75;99341.63;2082971;28;19909;-59
2022/03/11 03:20:22;;;;;;;;;;;;;;;18.14;56.85;99341.63;2085463;28;19920;-59
2022/03/11 03:21:25;;;;;;;;;;;;;;;18.12;56.94;99338.22;2083100;28;20025;-59
2022/03/11 03:22:25;;;;;;;;;;;;;;;18.12;56.83;99340.94;2085147;28;20019;-59
2022/03/11 03:23:26;;;;;;;;;;;;;;;18.12;57.03;99351.84;2079297;28;19921;-58
2022/03/11 03:24:26;;;;;;;;;;;;;;;18.13;56.89;99334.47;2080052;28;19967;-59
2022/03/11 03:25:26;;;;;;;;;;;;;;;18.13;56.93;99342.66;2079875;28;20003;-58
2022/03/11 03:26:27;;;;;;;;;;;;;;;18.13;56.94;99337.22;2084369;28;19917;-58
2022/03/11 03:27:27;;;;;;;;;;;;;;;18.13;56.77;99329.03;2083160;28;19916;-58
2022/03/11 03:28:28;;;;;;;;;;;;;;;18.14;56.88;99331.56;2081365;28;20085;-59
2022/03/11 03:29:28;;;;;;;;;;;;;;;18.16;56.77;99323.25;2083494;28;19921;-59
2022/03/11 03:30:29;;;;;;;;;;;;;;;18.17;56.76;99330.38;2081497;28;19925;-58
2022/03/11 03:31:29;;;;;;;;;;;;;;;18.16;56.73;99328.69;2089149;28;19913;-59
2022/03/11 03:32:29;;;;;;;;;;;;;;;18.16;56.85;99329.53;2079467;28;20287;-59
2022/03/11 03:33:31;;;;;;;;;;;;;;;18.17;56.58;99319.47;2087222;28;19930;-58
2022/03/11 03:34:32;;;;;;;;;;;;;;;18.17;56.81;99319.47;2080956;28;19923;-59
2022/03/11 03:35:33;;;;;;;;;;;;;;;18.17;56.57;99323.06;2086733;28;19924;-58
2022/03/11 03:36:34;;;;;;;;;;;;;;;18.17;56.76;99314.88;2080078;28;19978;-59
2022/03/11 03:37:34;;;;;;;;;;;;;;;18.18;56.80;99321.22;2087220;28;19924;-59
2022/03/11 03:38:34;;;;;;;;;;;;;;;18.18;56.79;99318.47;2085993;28;20077;-58
2022/03/11 03:39:35;;;;;;;;;;;;;;;18.16;56.81;99320.50;2084689;28;19917;-58
2022/03/11 03:40:36;;;;;;;;;;;;;;;18.17;56.56;99314.03;2084912;28;20152;-58
2022/03/11 03:41:36;;;;;;;;;;;;;;;18.16;56.75;99317.78;2078466;28;19923;-59
2022/03/11 03:42:37;;;;;;;;;;;;;;;18.15;56.65;99313.31;2083032;28;19917;-58
2022/03/11 03:43:37;;;;;;;;;;;;;;;18.16;56.71;99312.31;2083535;28;19925;-59
2022/03/11 03:44:37;;;;;;;;;;;;;;;18.15;56.68;99310.59;2082629;28;21356;-58
2022/03/11 03:45:39;;;;;;;;;;;;;;;18.15;56.73;99307.88;2085806;28;20326;-58
2022/03/11 03:46:39;;;;;;;;;;;;;;;18.15;56.60;99305.16;2082688;28;19952;-58
2022/03/11 03:47:40;;;;;;;;;;;;;;;18.15;56.42;99305.16;2082382;28;20780;-59
2022/03/11 03:48:40;;;;;;;;;;;;;;;18.14;56.60;99304.28;2083812;28;19916;-58
2022/03/11 03:49:40;;;;;;;;;;;;;;;18.14;56.63;99298.84;2080858;28;19925;-59
2022/03/11 03:50:41;;;;;;;;;;;;;;;18.14;56.62;99298.00;2083010;28;20335;-59
2022/03/11 03:51:42;;;;;;;;;;;;;;;18.12;56.55;99295.41;2080843;28;20017;-59
2022/03/11 03:52:42;;;;;;;;;;;;;;;18.13;56.44;99301.75;2083684;28;19908;-59
2022/03/11 03:53:42;;;;;;;;;;;;;;;18.13;56.49;99296.28;2083962;28;19916;-58
2022/03/11 03:54:44;;;;;;;;;;;;;;;18.15;56.51;99305.16;2082976;28;20795;-58
2022/03/11 03:55:44;;;;;;;;;;;;;;;18.12;56.38;99300.88;2084905;28;19931;-59
2022/03/11 03:56:45;;;;;;;;;;;;;;;18.13;56.64;99296.28;2081346;28;19913;-58
2022/03/11 03:57:45;;;;;;;;;;;;;;;18.13;56.67;99288.97;2076659;28;19913;-59
2022/03/11 03:58:45;;;;;;;;;;;;;;;18.14;56.42;99295.25;2080298;28;19939;-58
2022/03/11 03:59:46;;;;;;;;;;;;;;;18.13;56.49;99290.84;2083080;28;20460;-58
2022/03/11 04:00:46;;;;;;;;;;;;;;;18.13;56.66;99286.22;2083795;28;20195;-59
2022/03/11 04:01:46;;;;;;;;;;;;;;;18.14;56.55;99298.00;2085937;28;19928;-58
2022/03/11 04:02:47;;;;;;;;;;;;;;;18.12;56.57;99291.84;2077120;28;19909;-58
2022/03/11 04:03:47;;;;;;;;;;;;;;;18.13;56.42;99297.16;2080583;28;20585;-58
2022/03/11 04:04:48;;;;;;;;;;;;;;;18.13;56.53;99296.28;2083190;28;20238;-58
2022/03/11 04:05:48;;;;;;;;;;;;;;;18.13;56.50;99296.28;2085696;28;19913;-59
2022/03/11 04:06:48;;;;;;;;;;;;;;;18.12;56.60;99295.41;2080487;28;19917;-58
2022/03/11 04:07:49;;;;;;;;;;;;;;;18.13;56.80;99297.16;2082828;28;19917;-59
2022/03/11 04:08:49;;;;;;;;;;;;;;;18.12;56.67;99294.56;2087897;28;19919;-58
2022/03/11 04:09:49;;;;;;;;;;;;;;;18.10;56.87;99289.25;2081725;28;19920;-58
2022/03/11 04:10:50;;;;;;;;;;;;;;;18.10;56.58;99291.16;2080176;28;19951;-58
2022/03/11 04:11:50;;;;;;;;;;;;;;;18.10;56.81;99291.16;2087950;28;20182;-58
2022/03/11 04:12:50;;;;;;;;;;;;;;;18.10;56.74;99285.69;2089919;28;20394;-58
2022/03/11 04:13:51;;;;;;;;;;;;;;;18.08;56.85;99285.00;2095232;28;20582;-58
2022/03/11 04:14:51;;;;;;;;;;;;;;;18.07;56.61;99294.22;2090115;28;19997;-59
2022/03/11 04:15:52;;;;;;;;;;;;;;;18.07;56.71;99303.22;2091777;28;19920;-58
2022/03/11 04:16:53;;;;;;;;;;;;;;;18.08;56.83;99295.91;2094810;28;20440;-58
2022/03/11 04:17:53;;;;;;;;;;;;;;;18.07;56.81;99307.84;2093013;28;20427;-58
2022/03/11 04:18:54;;;;;;;;;;;;;;;18.07;56.75;99313.28;2094327;28;20428;-58
2022/03/11 04:19:54;;;;;;;;;;;;;;;18.07;56.81;99307.84;2090422;28;19946;-58
2022/03/11 04:20:54;;;;;;;;;;;;;;;18.07;56.68;99313.28;2094432;28;21027;-58
2022/03/11 04:21:55;;;;;;;;;;;;;;;18.07;56.82;99321.47;2087863;28;19954;-59
2022/03/11 04:22:55;;;;;;;;;;;;;;;18.06;56.84;99315.19;2090553;28;19921;-59
2022/03/11 04:23:56;;;;;;;;;;;;;;;18.05;56.85;99320.78;2097130;28;19927;-58
2022/03/11 04:24:56;;;;;;;;;;;;;;;18.05;56.92;99315.31;2091779;28;20150;-59
2022/03/11 04:25:56;;;;;;;;;;;;;;;18.05;56.87;99320.78;2090664;28;19916;-58
2022/03/11 04:26:57;;;;;;;;;;;;;;;18.05;56.82;99321.63;2078788;28;20279;-58
2022/03/11 04:27:57;;;;;;;;;;;;;;;18.05;56.68;99323.50;2080985;28;19967;-58
2022/03/11 04:28:57;;;;;;;;;;;;;;;18.05;56.88;99323.50;2094282;28;20345;-58
2022/03/11 04:29:58;;;;;;;;;;;;;;;18.05;56.81;99334.41;2087754;28;19972;-58
2022/03/11 04:30:59;;;;;;;;;;;;;;;18.05;56.80;99328.97;2090527;28;19962;-59
2022/03/11 04:31:59;;;;;;;;;;;;;;;18.05;56.63;99332.53;2092026;28;20367;-58
2022/03/11 04:32:59;;;;;;;;;;;;;;;18.05;56.68;99337.13;2088264;28;19950;-57
2022/03/11 04:34:01;;;;;;;;;;;;;;;18.05;56.66;99335.25;2092256;28;20322;-59
2022/03/11 04:35:01;;;;;;;;;;;;;;;18.06;56.87;99349.78;2087829;28;20454;-59
2022/03/11 04:36:03;;;;;;;;;;;;;;;18.05;56.63;99338.00;2089763;28;19917;-58
2022/03/11 04:37:03;;;;;;;;;;;;;;;18.05;56.66;99337.13;2096478;28;20334;-59
2022/03/11 04:38:03;;;;;;;;;;;;;;;18.05;56.85;99337.13;2088112;28;19923;-59
2022/03/11 04:39:07;;;;;;;;;;;;;;;18.04;56.78;99330.00;2093512;28;19964;-59
2022/03/11 04:40:08;;;;;;;;;;;;;;;18.04;56.96;99344.47;2086916;28;19924;-59
2022/03/11 04:41:08;;;;;;;;;;;;;;;18.02;56.73;99329.28;2089771;28;19959;-59
2022/03/11 04:42:10;;;;;;;;;;;;;;;18.04;56.93;99346.34;2091324;28;20426;-58
2022/03/11 04:43:10;;;;;;;;;;;;;;;18.03;56.69;99339.16;2093231;28;19923;-59
2022/03/11 04:44:11;;;;;;;;;;;;;;;18.00;56.75;99352.09;2093226;28;19963;-59
2022/03/11 04:45:11;;;;;;;;;;;;;;;18.01;56.82;99347.53;2088887;28;20289;-59
2022/03/11 04:46:12;;;;;;;;;;;;;;;18.00;56.83;99341.19;2093220;28;19920;-58
2022/03/11 04:47:12;;;;;;;;;;;;;;;17.98;56.94;99331.47;2092161;28;20299;-59
2022/03/11 04:48:13;;;;;;;;;;;;;;;17.98;56.83;99337.81;2090151;28;19963;-58
2022/03/11 04:49:13;;;;;;;;;;;;;;;17.97;56.92;99341.53;2097655;28;19931;-58
2022/03/11 04:50:14;;;;;;;;;;;;;;;17.98;56.81;99337.81;2091953;28;19943;-58
2022/03/11 04:51:14;;;;;;;;;;;;;;;17.95;56.96;99338.09;2091512;28;19924;-58
2022/03/11 04:52:14;;;;;;;;;;;;;;;17.96;56.82;99337.09;2086380;28;19921;-59
2022/03/11 04:53:15;;;;;;;;;;;;;;;17.96;56.85;99345.28;2090840;28;19920;-59
2022/03/11 04:54:15;;;;;;;;;;;;;;;17.96;56.95;99344.44;2090539;28;19966;-59
2022/03/11 04:55:17;;;;;;;;;;;;;;;17.96;56.87;99344.44;2088135;28;20283;-59
2022/03/11 04:56:18;;;;;;;;;;;;;;;17.95;56.79;99342.72;2092105;28;19932;-58
2022/03/11 04:57:19;;;;;;;;;;;;;;;17.96;56.79;99338.97;2090807;28;20245;-59
2022/03/11 04:58:19;;;;;;;;;;;;;;;17.96;56.87;99339.84;2092321;28;20054;-59
2022/03/11 04:59:20;;;;;;;;;;;;;;;17.95;56.78;99331.78;2087477;28;20327;-58
2022/03/11 05:00:20;;;;;;;;;;;;;;;17.96;56.75;99339.84;2089239;28;19951;-58
2022/03/11 05:01:20;;;;;;;;;;;;;;;17.96;56.80;99341.72;2087790;28;19966;-58
2022/03/11 05:02:24;;;;;;;;;;;;;;;17.97;56.91;99343.41;2081849;28;20366;-59
2022/03/11 05:03:25;;;;;;;;;;;;;;;17.96;56.89;99338.97;2077740;28;19962;-58
2022/03/11 05:04:25;;;;;;;;;;;;;;;17.96;56.95;99342.56;2087960;28;19955;-59
2022/03/11 05:05:26;;;;;;;;;;;;;;;17.97;56.82;99332.50;2094139;28;19930;-59
2022/03/11 05:06:27;;;;;;;;;;;;;;;17.96;56.71;99342.56;2089433;28;19930;-58
2022/03/11 05:07:27;;;;;;;;;;;;;;;17.95;56.85;99335.38;2094619;28;19927;-58
2022/03/11 05:08:28;;;;;;;;;;;;;;;17.96;57.00;99328.06;2089990;28;20314;-59
2022/03/11 05:09:28;;;;;;;;;;;;;;;17.96;56.97;99328.91;2089532;28;19920;-59
2022/03/11 05:10:28;;;;;;;;;;;;;;;17.96;56.80;99336.25;2088733;28;20211;-58
2022/03/11 05:11:29;;;;;;;;;;;;;;;17.95;56.84;99331.78;2086608;28;20311;-59
2022/03/11 05:12:30;;;;;;;;;;;;;;;17.94;56.88;99341.84;2088387;28;19974;-59
2022/03/11 05:13:30;;;;;;;;;;;;;;;17.93;56.67;99348.34;2087984;28;19943;-58
2022/03/11 05:14:30;;;;;;;;;;;;;;;17.93;56.77;99340.16;2081314;28;19920;-59
2022/03/11 05:15:31;;;;;;;;;;;;;;;17.92;56.88;99349.34;2084238;28;20241;-58
2022/03/11 05:16:31;;;;;;;;;;;;;;;17.92;56.66;99337.59;2093213;28;20022;-59